Time;durP1;ratioP1;P1;durP2;ratioP2;P2;SDS_P1;SDS_P2;PMS_P1;PMS_P2;Temp;Humidity;BMP_temperature;BMP_pressure;BME280_temperature;BME280_humidity;BME280_pressure;Samples;Min_cycle;Max_cycle;Signal;HPM_P1;HPM_P2
2021/09/01 00:00:11;;;;;;;5.13;3.70;;;14.90;99.30;;;;;;5096516;28;20040;-86
2021/09/01 00:02:38;;;;;;;7.07;4.63;;;14.90;99.30;;;;;;5054989;28;20075;-87
2021/09/01 00:05:05;;;;;;;6.82;4.03;;;14.90;99.30;;;;;;5054994;28;20467;-86
2021/09/01 00:07:30;;;;;;;6.53;4.93;;;14.80;99.40;;;;;;5044864;28;20048;-88
2021/09/01 00:09:56;;;;;;;7.88;4.55;;;14.80;99.50;;;;;;5064956;28;20040;-88
2021/09/01 00:12:21;;;;;;;7.47;5.38;;;14.70;99.50;;;;;;5073161;28;20041;-88
2021/09/01 00:14:47;;;;;;;5.65;4.65;;;14.70;99.50;;;;;;5086321;28;20024;-87
2021/09/01 00:17:12;;;;;;;4.72;3.33;;;14.70;99.60;;;;;;5061894;28;20040;-88
2021/09/01 00:19:38;;;;;;;6.22;4.07;;;14.70;99.60;;;;;;5049761;28;20128;-88
2021/09/01 00:22:04;;;;;;;8.82;4.97;;;14.70;99.70;;;;;;5057234;28;20056;-88
2021/09/01 00:24:29;;;;;;;6.47;4.38;;;14.70;99.70;;;;;;5057868;28;20041;-87
2021/09/01 00:26:55;;;;;;;8.30;4.72;;;14.60;99.70;;;;;;5052858;28;20124;-88
2021/09/01 00:29:21;;;;;;;7.63;4.43;;;14.60;99.70;;;;;;5104112;28;20094;-88
2021/09/01 00:31:46;;;;;;;6.65;4.50;;;14.60;99.90;;;;;;5057823;28;20042;-88
2021/09/01 00:34:12;;;;;;;5.20;4.05;;;14.50;99.80;;;;;;5051309;28;20048;-88
2021/09/01 00:36:37;;;;;;;7.78;4.68;;;14.60;99.90;;;;;;5097257;28;20068;-87
2021/09/01 00:39:03;;;;;;;8.30;5.45;;;14.50;99.90;;;;;;5064796;28;20099;-88
2021/09/01 00:41:29;;;;;;;5.95;4.65;;;14.50;99.90;;;;;;5052863;28;20037;-90
2021/09/01 00:43:59;;;;;;;6.65;5.07;;;14.50;99.90;;;;;;5056959;28;20355;-88
2021/09/01 00:46:25;;;;;;;5.75;4.28;;;14.50;99.90;;;;;;5056721;28;20431;-87
2021/09/01 00:48:52;;;;;;;6.07;4.65;;;14.40;99.90;;;;;;5096156;28;20033;-88
2021/09/01 00:51:18;;;;;;;11.40;6.07;;;14.50;99.90;;;;;;5103140;28;20045;-87
2021/09/01 00:53:45;;;;;;;6.20;4.82;;;14.40;99.90;;;;;;5089943;28;20037;-88
2021/09/01 00:56:22;;;;;;;8.35;4.70;;;14.40;99.90;;;;;;5087073;28;20033;-88
2021/09/01 00:58:49;;;;;;;10.00;5.03;;;14.40;99.90;;;;;;5063276;28;20036;-88
2021/09/01 01:01:16;;;;;;;6.57;4.68;;;14.40;99.90;;;;;;5082420;28;20052;-87
2021/09/01 01:03:49;;;;;;;6.55;5.10;;;14.30;99.90;;;;;;5062173;28;20051;-88
2021/09/01 01:06:23;;;;;;;9.48;5.72;;;14.30;99.90;;;;;;5076110;28;20048;-87
2021/09/01 01:08:49;;;;;;;9.07;5.32;;;14.30;99.90;;;;;;5062109;28;20324;-88
2021/09/01 01:11:14;;;;;;;7.57;4.68;;;14.30;99.90;;;;;;5056967;28;20044;-88
2021/09/01 01:13:42;;;;;;;7.55;5.07;;;14.20;99.90;;;;;;5062801;28;20044;-87
2021/09/01 01:16:09;;;;;;;7.22;5.25;;;14.30;99.90;;;;;;5053186;28;20029;-87
2021/09/01 01:18:35;;;;;;;5.47;4.80;;;14.20;99.90;;;;;;5070120;28;20072;-86
2021/09/01 01:21:00;;;;;;;6.68;5.40;;;14.20;99.90;;;;;;5059378;28;20048;-87
2021/09/01 01:23:26;;;;;;;8.13;5.35;;;14.20;99.90;;;;;;5065064;28;20048;-88
2021/09/01 01:25:52;;;;;;;11.18;6.72;;;14.10;99.90;;;;;;5060751;28;20045;-88
2021/09/01 01:28:17;;;;;;;7.28;4.82;;;14.10;99.90;;;;;;5074304;28;20086;-89
2021/09/01 01:30:43;;;;;;;10.63;6.00;;;14.10;99.90;;;;;;5072008;28;20033;-88
2021/09/01 01:33:09;;;;;;;11.70;5.63;;;14.10;99.90;;;;;;5064521;28;20405;-89
2021/09/01 01:35:41;;;;;;;7.55;5.70;;;14.10;99.90;;;;;;5063852;28;20067;-88
2021/09/01 01:38:10;;;;;;;7.25;5.55;;;14.10;99.90;;;;;;5099885;28;20300;-86
2021/09/01 01:40:38;;;;;;;8.52;6.07;;;14.10;99.90;;;;;;5078193;28;20044;-87
2021/09/01 01:43:04;;;;;;;10.55;6.38;;;14.00;99.90;;;;;;5092318;28;20047;-88
2021/09/01 01:45:35;;;;;;;8.82;6.10;;;14.00;99.90;;;;;;5059840;28;20048;-88
2021/09/01 01:48:01;;;;;;;8.10;5.55;;;14.00;99.90;;;;;;5052385;28;20038;-88
2021/09/01 01:50:28;;;;;;;9.93;6.57;;;14.00;99.90;;;;;;5061743;28;20056;-88
2021/09/01 01:52:54;;;;;;;9.95;6.03;;;14.00;99.90;;;;;;5059232;28;20123;-87
2021/09/01 01:55:19;;;;;;;7.97;6.05;;;13.90;99.90;;;;;;5063070;28;20036;-88
2021/09/01 01:57:45;;;;;;;8.68;5.57;;;13.90;99.90;;;;;;5056965;28;20123;-87
2021/09/01 02:00:11;;;;;;;7.10;5.10;;;13.90;99.90;;;;;;5047801;28;20037;-87
2021/09/01 02:02:36;;;;;;;10.75;6.82;;;13.90;99.90;;;;;;5095184;28;20052;-87
2021/09/01 02:05:02;;;;;;;8.02;6.50;;;13.80;99.90;;;;;;5062582;28;20040;-88
2021/09/01 02:07:29;;;;;;;8.23;5.55;;;13.80;99.90;;;;;;5072049;28;20052;-87
2021/09/01 02:09:55;;;;;;;9.10;6.40;;;13.80;99.90;;;;;;5063411;28;20052;-88
2021/09/01 02:12:21;;;;;;;11.40;6.95;;;13.80;99.90;;;;;;5054587;28;20033;-88
2021/09/01 02:14:46;;;;;;;11.55;7.07;;;13.80;99.90;;;;;;5066029;28;20040;-89
2021/09/01 02:17:12;;;;;;;10.98;6.55;;;13.70;99.90;;;;;;5063820;28;20032;-88
2021/09/01 02:19:38;;;;;;;10.45;6.47;;;13.70;99.90;;;;;;5051588;28;20034;-88
2021/09/01 02:22:04;;;;;;;6.93;5.40;;;13.70;99.90;;;;;;5066916;28;20131;-88
2021/09/01 02:24:30;;;;;;;11.30;6.57;;;13.60;99.90;;;;;;5091855;28;20335;-88
2021/09/01 02:26:56;;;;;;;8.88;5.50;;;13.60;99.90;;;;;;5077640;28;20042;-89
2021/09/01 02:29:22;;;;;;;11.40;5.80;;;13.60;99.90;;;;;;5058108;28;20059;-88
2021/09/01 02:31:47;;;;;;;8.73;5.78;;;13.60;99.90;;;;;;5056745;28;20059;-88
2021/09/01 02:34:13;;;;;;;8.32;5.97;;;13.60;99.90;;;;;;5060305;28;20037;-87
2021/09/01 02:36:39;;;;;;;7.57;6.13;;;13.60;99.90;;;;;;5063563;28;20061;-88
2021/09/01 02:39:05;;;;;;;9.50;6.35;;;13.60;99.90;;;;;;5097625;28;20416;-88
2021/09/01 02:41:30;;;;;;;11.82;5.95;;;13.50;99.90;;;;;;5097662;28;20068;-89
2021/09/01 02:43:56;;;;;;;12.88;6.47;;;13.50;99.90;;;;;;5062203;28;20045;-88
2021/09/01 02:46:22;;;;;;;11.10;6.13;;;13.50;99.90;;;;;;5056320;28;21635;-88
2021/09/01 02:48:47;;;;;;;10.30;6.60;;;13.50;99.90;;;;;;5057835;28;20041;-85
2021/09/01 02:51:13;;;;;;;8.75;6.53;;;13.50;99.90;;;;;;5054495;28;20459;-88
2021/09/01 02:53:38;;;;;;;12.23;7.05;;;13.50;99.90;;;;;;5058103;28;20124;-88
2021/09/01 02:56:04;;;;;;;8.60;6.95;;;13.50;99.90;;;;;;5058833;28;20413;-85
2021/09/01 02:58:29;;;;;;;13.50;6.72;;;13.50;99.90;;;;;;5094065;28;20040;-87
2021/09/01 03:00:55;;;;;;;10.07;6.50;;;13.50;99.90;;;;;;5065742;28;20115;-89
2021/09/01 03:03:21;;;;;;;10.13;6.55;;;13.50;99.90;;;;;;5059134;28;20069;-88
2021/09/01 03:05:47;;;;;;;10.63;7.88;;;13.50;99.90;;;;;;5069649;28;20308;-89
2021/09/01 03:08:12;;;;;;;10.57;6.43;;;13.50;99.90;;;;;;5064888;28;20124;-88
2021/09/01 03:10:38;;;;;;;10.85;7.85;;;13.40;99.90;;;;;;5061445;28;20341;-89
2021/09/01 03:13:03;;;;;;;11.10;7.72;;;13.40;99.90;;;;;;5098559;28;20389;-87
2021/09/01 03:15:29;;;;;;;12.75;6.93;;;13.40;99.90;;;;;;5051563;28;20072;-88
2021/09/01 03:17:55;;;;;;;11.93;7.97;;;13.40;99.90;;;;;;5060593;28;20368;-88
2021/09/01 03:20:20;;;;;;;8.52;6.85;;;13.40;99.90;;;;;;5061031;28;20389;-88
2021/09/01 03:22:46;;;;;;;9.10;7.10;;;13.40;99.90;;;;;;5088125;28;20067;-89
2021/09/01 03:25:11;;;;;;;8.55;6.70;;;13.40;99.90;;;;;;5064580;28;20036;-87
2021/09/01 03:27:37;;;;;;;9.77;6.68;;;13.40;99.90;;;;;;5054066;28;20048;-90
2021/09/01 03:30:03;;;;;;;11.48;7.68;;;13.40;99.90;;;;;;5071149;28;20032;-86
2021/09/01 03:32:29;;;;;;;9.55;7.35;;;13.40;99.90;;;;;;5062439;28;20075;-88
2021/09/01 03:34:54;;;;;;;10.80;7.20;;;13.40;99.90;;;;;;5065552;28;20392;-88
2021/09/01 03:37:20;;;;;;;11.20;7.93;;;13.40;99.90;;;;;;5066404;28;20040;-88
2021/09/01 03:39:45;;;;;;;15.15;8.23;;;13.30;99.90;;;;;;5075729;28;20040;-87
2021/09/01 03:42:10;;;;;;;12.82;8.68;;;13.30;99.90;;;;;;5059741;28;20183;-87
2021/09/01 03:44:36;;;;;;;10.98;7.05;;;13.40;99.90;;;;;;5076331;28;20052;-88
2021/09/01 03:47:02;;;;;;;16.42;7.55;;;13.30;99.90;;;;;;5047625;28;20115;-87
2021/09/01 03:49:27;;;;;;;9.23;6.60;;;13.40;99.90;;;;;;5087391;28;20041;-87
2021/09/01 03:51:53;;;;;;;12.55;7.30;;;13.30;99.90;;;;;;5054093;28;20041;-88
2021/09/01 03:54:18;;;;;;;10.82;7.38;;;13.40;99.90;;;;;;5058423;28;20423;-89
2021/09/01 03:56:44;;;;;;;12.07;7.50;;;13.40;99.90;;;;;;5058524;28;20077;-88
2021/09/01 03:59:09;;;;;;;10.30;7.32;;;13.30;99.90;;;;;;5058713;28;20051;-86
2021/09/01 04:01:35;;;;;;;11.32;8.02;;;13.30;99.90;;;;;;5048606;28;20038;-89
2021/09/01 04:04:04;;;;;;;11.05;6.72;;;13.30;99.90;;;;;;5094141;28;20036;-86
2021/09/01 04:06:31;;;;;;;13.13;7.43;;;13.30;99.90;;;;;;5061060;28;20051;-89
2021/09/01 04:08:56;;;;;;;10.40;7.22;;;13.30;99.90;;;;;;5053520;28;20127;-88
2021/09/01 04:11:22;;;;;;;11.18;7.78;;;13.30;99.90;;;;;;5048907;28;20470;-87
2021/09/01 04:13:47;;;;;;;10.88;7.07;;;13.30;99.90;;;;;;5056164;28;20047;-88
2021/09/01 04:16:13;;;;;;;10.18;7.55;;;13.30;99.90;;;;;;5044050;28;20061;-88
2021/09/01 04:18:38;;;;;;;10.50;7.28;;;13.30;99.90;;;;;;5042577;28;20037;-88
2021/09/01 04:21:04;;;;;;;12.98;7.70;;;13.30;99.90;;;;;;5046222;28;20346;-88
2021/09/01 04:23:30;;;;;;;13.90;8.13;;;13.20;99.90;;;;;;5056406;28;20435;-88
2021/09/01 04:25:55;;;;;;;10.65;7.40;;;13.30;99.90;;;;;;5057636;28;20036;-87
2021/09/01 04:28:21;;;;;;;10.90;7.57;;;13.40;99.90;;;;;;5061742;28;20051;-87
2021/09/01 04:30:47;;;;;;;13.25;8.02;;;13.40;99.90;;;;;;5096206;28;20128;-86
2021/09/01 04:33:13;;;;;;;13.32;8.65;;;13.40;99.90;;;;;;5066220;28;20456;-88
2021/09/01 04:35:42;;;;;;;10.85;8.10;;;13.50;99.90;;;;;;5067856;28;20789;-90
2021/09/01 04:38:08;;;;;;;10.50;7.63;;;13.40;99.90;;;;;;5054916;28;20048;-87
2021/09/01 04:40:33;;;;;;;14.68;9.15;;;13.50;99.90;;;;;;5063405;28;20331;-89
2021/09/01 04:42:59;;;;;;;12.80;8.57;;;13.50;99.90;;;;;;5070624;28;20048;-87
2021/09/01 04:45:25;;;;;;;11.95;7.00;;;13.50;99.90;;;;;;5114732;28;20041;-88
2021/09/01 04:47:50;;;;;;;16.83;9.57;;;13.60;99.90;;;;;;5105002;28;20045;-87
2021/09/01 04:50:16;;;;;;;13.57;8.75;;;13.60;99.90;;;;;;5072549;28;20036;-89
2021/09/01 04:52:41;;;;;;;15.52;10.77;;;13.70;99.90;;;;;;5072292;28;20127;-87
2021/09/01 04:55:08;;;;;;;26.95;13.80;;;13.80;99.90;;;;;;5067007;28;20479;-88
2021/09/01 04:57:34;;;;;;;29.60;14.13;;;13.90;99.90;;;;;;5069490;28;20133;-87
2021/09/01 04:59:59;;;;;;;23.17;13.60;;;14.00;99.90;;;;;;5075206;28;20130;-87
2021/09/01 05:02:25;;;;;;;28.70;15.10;;;14.10;99.90;;;;;;5064281;28;20051;-86
2021/09/01 05:04:50;;;;;;;29.67;16.00;;;14.20;99.90;;;;;;5061410;28;20046;-87
2021/09/01 05:07:16;;;;;;;31.60;16.63;;;14.20;99.90;;;;;;5059628;28;20120;-86
2021/09/01 05:09:42;;;;;;;33.65;16.35;;;14.30;99.90;;;;;;5099840;28;20041;-88
2021/09/01 05:12:11;;;;;;;33.20;17.35;;;14.40;99.90;;;;;;5058969;28;20163;-88
2021/09/01 05:14:36;;;;;;;28.48;16.02;;;14.50;99.90;;;;;;5059020;28;20091;-87
2021/09/01 05:17:02;;;;;;;35.58;17.65;;;14.50;99.90;;;;;;5065662;28;20045;-87
2021/09/01 05:19:28;;;;;;;30.08;17.45;;;14.60;99.90;;;;;;5060751;28;20029;-88
2021/09/01 05:21:54;;;;;;;30.70;17.80;;;14.70;99.90;;;;;;5070242;28;20083;-89
2021/09/01 05:24:40;;;;;;;28.65;15.82;;;14.80;99.90;;;;;;5075046;28;20042;-89
2021/09/01 05:27:20;;;;;;;29.17;15.75;;;14.90;99.90;;;;;;5086923;28;20029;-88
2021/09/01 05:29:50;;;;;;;27.65;16.13;;;14.90;99.90;;;;;;5062952;28;20033;-85
2021/09/01 05:32:22;;;;;;;26.77;15.45;;;15.00;99.90;;;;;;5074973;28;20044;-87
2021/09/01 05:34:49;;;;;;;24.98;14.88;;;15.10;99.90;;;;;;5077988;28;20308;-88
2021/09/01 05:37:14;;;;;;;22.65;13.85;;;15.10;99.90;;;;;;5067664;28;20032;-87
2021/09/01 05:39:49;;;;;;;24.15;13.98;;;15.20;99.90;;;;;;5076257;28;20040;-88
2021/09/01 05:42:20;;;;;;;25.55;13.88;;;15.20;99.90;;;;;;5066647;28;20052;-87
2021/09/01 05:44:46;;;;;;;23.17;13.88;;;15.20;99.90;;;;;;5066725;28;20099;-88
2021/09/01 05:47:13;;;;;;;24.08;13.90;;;15.30;99.90;;;;;;5058890;28;20343;-87
2021/09/01 05:49:40;;;;;;;22.02;12.93;;;15.30;99.90;;;;;;5075473;28;20161;-89
2021/09/01 05:52:07;;;;;;;20.98;11.73;;;15.40;99.90;;;;;;5067445;28;20362;-87
2021/09/01 05:54:33;;;;;;;17.95;11.95;;;15.50;99.90;;;;;;5075113;28;20040;-87
2021/09/01 05:57:13;;;;;;;20.60;12.30;;;15.50;99.90;;;;;;5066831;28;20079;-87
2021/09/01 05:59:46;;;;;;;23.42;12.68;;;15.50;99.90;;;;;;5082055;28;20039;-87
2021/09/01 06:02:21;;;;;;;18.45;11.93;;;15.50;99.90;;;;;;5072304;28;20052;-90
2021/09/01 06:04:47;;;;;;;22.95;12.15;;;15.50;99.90;;;;;;5070186;28;20078;-86
2021/09/01 06:07:18;;;;;;;19.17;11.90;;;15.60;99.90;;;;;;5074261;28;20047;-87
2021/09/01 06:09:45;;;;;;;16.77;12.18;;;15.50;99.90;;;;;;5058327;28;20384;-87
2021/09/01 06:12:19;;;;;;;16.77;11.05;;;15.60;99.90;;;;;;5053267;28;20072;-87
2021/09/01 06:14:45;;;;;;;20.48;12.40;;;15.70;99.90;;;;;;5068278;28;20783;-87
2021/09/01 06:17:11;;;;;;;17.95;11.68;;;15.80;99.90;;;;;;5079004;28;20048;-86
2021/09/01 06:19:38;;;;;;;17.70;10.85;;;15.90;99.90;;;;;;5057480;28;20037;-87
2021/09/01 06:22:04;;;;;;;16.20;11.68;;;15.90;99.90;;;;;;5063115;28;20101;-87
2021/09/01 06:24:32;;;;;;;21.33;12.07;;;15.90;99.90;;;;;;5067777;28;20037;-88
2021/09/01 06:26:57;;;;;;;18.95;11.70;;;16.00;99.90;;;;;;5051014;28;20036;-86
2021/09/01 06:29:23;;;;;;;26.80;11.52;;;16.00;99.90;;;;;;5055547;28;20442;-87
2021/09/01 06:31:48;;;;;;;22.70;11.85;;;16.10;99.90;;;;;;5049822;28;20356;-88
2021/09/01 06:34:14;;;;;;;18.52;11.52;;;16.10;99.90;;;;;;5051934;28;20045;-89
2021/09/01 06:36:39;;;;;;;19.60;11.95;;;16.10;99.90;;;;;;5055986;28;20037;-88
2021/09/01 06:39:05;;;;;;;20.13;11.18;;;16.30;99.90;;;;;;5072680;28;20064;-86
2021/09/01 06:41:30;;;;;;;18.50;11.32;;;16.20;99.90;;;;;;5074286;28;20066;-88
2021/09/01 06:43:56;;;;;;;30.50;12.05;;;16.30;99.90;;;;;;5068044;28;20045;-89
2021/09/01 06:46:21;;;;;;;17.05;11.48;;;16.30;99.90;;;;;;5055234;28;20494;-87
2021/09/01 06:48:47;;;;;;;17.65;11.05;;;16.40;99.90;;;;;;5054669;28;20089;-89
2021/09/01 06:51:12;;;;;;;20.48;11.50;;;16.40;99.90;;;;;;5064785;28;20037;-86
2021/09/01 06:53:38;;;;;;;19.85;11.52;;;16.40;99.90;;;;;;5059354;28;20042;-87
2021/09/01 06:56:04;;;;;;;20.05;12.38;;;16.40;99.90;;;;;;5063784;28;20094;-88
2021/09/01 06:58:29;;;;;;;20.55;11.85;;;16.40;99.90;;;;;;5079043;28;20032;-87
2021/09/01 07:00:55;;;;;;;20.02;12.38;;;16.40;99.90;;;;;;5078743;28;20043;-87
2021/09/01 07:03:20;;;;;;;21.92;11.50;;;16.40;99.90;;;;;;5059104;28;20135;-87
2021/09/01 07:05:46;;;;;;;22.85;13.05;;;16.50;99.90;;;;;;5047060;28;20053;-89
2021/09/01 07:08:16;;;;;;;21.65;13.05;;;16.40;99.90;;;;;;5038632;28;20128;-89
2021/09/01 07:10:43;;;;;;;23.20;13.77;;;16.40;99.90;;;;;;5037528;28;20037;-88
2021/09/01 07:13:09;;;;;;;19.42;12.27;;;16.40;99.90;;;;;;5047080;28;20290;-89
2021/09/01 07:15:35;;;;;;;22.08;13.32;;;16.40;99.90;;;;;;5072614;28;20135;-89
2021/09/01 07:18:00;;;;;;;22.38;13.07;;;16.50;99.90;;;;;;5061829;28;20040;-89
2021/09/01 07:20:26;;;;;;;22.67;13.25;;;16.60;99.90;;;;;;5037038;28;20037;-89
2021/09/01 07:22:51;;;;;;;19.35;12.77;;;16.60;99.90;;;;;;5037855;28;20103;-89
2021/09/01 07:25:17;;;;;;;23.10;14.98;;;16.70;99.90;;;;;;5038302;28;20052;-88
2021/09/01 07:27:42;;;;;;;22.35;14.18;;;16.70;99.40;;;;;;5039356;28;20049;-88
2021/09/01 07:30:09;;;;;;;23.60;13.07;;;16.60;99.60;;;;;;5037957;28;20037;-88
2021/09/01 07:32:34;;;;;;;23.45;14.23;;;16.70;99.80;;;;;;5055149;28;20059;-88
2021/09/01 07:35:00;;;;;;;25.52;14.07;;;16.70;99.50;;;;;;5061175;28;20040;-88
2021/09/01 07:37:26;;;;;;;22.38;14.32;;;16.70;99.60;;;;;;5069788;28;20029;-87
2021/09/01 07:39:51;;;;;;;22.67;13.57;;;16.70;99.70;;;;;;5047691;28;20094;-88
2021/09/01 07:42:17;;;;;;;26.70;13.80;;;16.80;99.80;;;;;;5038239;28;20053;-88
2021/09/01 07:44:43;;;;;;;21.52;13.27;;;16.80;99.80;;;;;;5045733;28;20041;-88
2021/09/01 07:47:09;;;;;;;23.05;13.60;;;16.90;99.60;;;;;;5045329;28;20045;-89
2021/09/01 07:49:34;;;;;;;25.35;13.13;;;17.00;99.20;;;;;;5086139;28;20070;-87
2021/09/01 07:52:01;;;;;;;30.50;14.68;;;17.00;99.30;;;;;;5046141;28;20041;-87
2021/09/01 07:54:26;;;;;;;27.27;14.57;;;17.10;99.00;;;;;;5046069;28;20037;-89
2021/09/01 07:56:52;;;;;;;24.02;13.50;;;17.10;98.90;;;;;;5070698;28;20036;-88
2021/09/01 07:59:17;;;;;;;25.35;13.68;;;17.20;98.60;;;;;;5078635;28;20482;-88
2021/09/01 08:01:43;;;;;;;24.80;14.98;;;17.20;98.60;;;;;;5057076;28;20044;-89
2021/09/01 08:04:09;;;;;;;20.50;14.23;;;17.10;98.70;;;;;;5069055;28;20037;-88
2021/09/01 08:06:34;;;;;;;22.27;14.32;;;17.10;98.60;;;;;;5056489;28;20138;-88
2021/09/01 08:09:00;;;;;;;26.38;15.73;;;17.10;98.90;;;;;;5055140;28;20037;-88
2021/09/01 08:11:26;;;;;;;22.58;14.38;;;17.20;99.00;;;;;;5071353;28;20041;-89
2021/09/01 08:13:52;;;;;;;24.73;15.18;;;17.20;98.70;;;;;;5075326;28;20036;-88
2021/09/01 08:16:17;;;;;;;21.35;13.77;;;17.20;98.50;;;;;;5063109;28;20033;-88
2021/09/01 08:18:43;;;;;;;22.63;15.30;;;17.20;98.60;;;;;;5075315;28;20037;-87
2021/09/01 08:21:09;;;;;;;21.50;14.48;;;17.10;98.60;;;;;;5076916;28;20036;-89
2021/09/01 08:23:34;;;;;;;26.60;15.55;;;17.10;98.90;;;;;;5066141;28;20040;-88
2021/09/01 08:26:00;;;;;;;24.08;14.88;;;17.00;98.90;;;;;;5057609;28;20106;-88
2021/09/01 08:28:25;;;;;;;21.67;15.18;;;17.00;99.00;;;;;;5057098;28;20128;-88
2021/09/01 08:30:51;;;;;;;24.45;15.07;;;16.90;98.80;;;;;;5054566;28;20041;-88
2021/09/01 08:33:16;;;;;;;28.67;15.73;;;16.90;99.00;;;;;;5048104;28;20036;-88
2021/09/01 08:35:42;;;;;;;21.05;14.57;;;16.90;99.20;;;;;;5069231;28;20041;-88
2021/09/01 08:38:07;;;;;;;21.90;14.25;;;17.00;98.80;;;;;;5036562;28;20076;-86
2021/09/01 08:40:33;;;;;;;24.40;15.52;;;17.20;98.80;;;;;;5037305;28;20029;-88
2021/09/01 08:43:00;;;;;;;24.80;15.88;;;17.30;98.70;;;;;;5046078;28;20041;-88
2021/09/01 08:45:26;;;;;;;26.00;15.63;;;17.30;98.50;;;;;;5065489;28;20037;-89
2021/09/01 08:47:55;;;;;;;24.40;15.90;;;17.40;98.50;;;;;;5060697;28;20040;-88
2021/09/01 08:50:21;;;;;;;22.67;14.90;;;17.50;98.60;;;;;;5057216;28;20121;-88
2021/09/01 08:52:47;;;;;;;23.25;14.65;;;17.60;98.10;;;;;;5056696;28;20053;-87
2021/09/01 08:55:14;;;;;;;24.80;15.50;;;17.60;98.30;;;;;;5055278;28;20033;-87
2021/09/01 08:57:40;;;;;;;21.77;14.50;;;17.70;97.90;;;;;;5056140;28;20036;-87
2021/09/01 09:00:08;;;;;;;23.27;14.93;;;17.90;97.70;;;;;;5055652;28;20434;-87
2021/09/01 09:02:34;;;;;;;20.98;13.27;;;18.00;97.40;;;;;;5061848;28;20060;-87
2021/09/01 09:05:05;;;;;;;21.42;12.43;;;18.00;96.50;;;;;;5055954;28;20443;-89
2021/09/01 09:07:30;;;;;;;22.05;12.52;;;18.10;96.90;;;;;;5064014;28;20041;-87
2021/09/01 09:09:57;;;;;;;19.52;13.00;;;18.20;96.60;;;;;;5061763;28;20040;-88
2021/09/01 09:12:32;;;;;;;22.77;12.90;;;18.30;96.40;;;;;;5043765;28;20308;-88
2021/09/01 09:14:57;;;;;;;21.08;12.65;;;18.30;96.50;;;;;;5055696;28;20033;-88
2021/09/01 09:17:33;;;;;;;18.88;12.15;;;18.40;96.80;;;;;;5055482;28;20039;-90
2021/09/01 09:20:05;;;;;;;15.82;11.60;;;18.50;96.20;;;;;;5055187;28;20033;-87
2021/09/01 09:22:36;;;;;;;17.70;10.70;;;18.60;95.80;;;;;;5054997;28;20132;-88
2021/09/01 09:25:31;;;;;;;18.73;11.85;;;18.60;95.90;;;;;;5055370;28;20666;-88
2021/09/01 09:28:05;;;;;;;19.33;12.30;;;18.70;95.70;;;;;;5066620;28;20036;-87
2021/09/01 09:30:34;;;;;;;14.80;10.43;;;18.70;96.20;;;;;;5071821;28;20432;-90
2021/09/01 09:33:09;;;;;;;19.48;10.73;;;18.80;95.80;;;;;;5057864;28;20309;-88
2021/09/01 09:35:59;;;;;;;20.02;12.27;;;18.70;95.70;;;;;;5067944;28;20073;-90
2021/09/01 09:38:38;;;;;;;20.20;11.60;;;18.80;95.80;;;;;;5076531;28;20378;-89
2021/09/01 09:41:07;;;;;;;16.85;10.98;;;18.80;95.30;;;;;;5055954;28;20119;-88
2021/09/01 09:43:34;;;;;;;18.83;12.18;;;18.80;95.60;;;;;;5052193;28;20403;-87
2021/09/01 09:46:10;;;;;;;16.55;12.65;;;18.90;95.50;;;;;;5038148;28;20100;-88
2021/09/01 09:48:38;;;;;;;15.25;11.25;;;19.00;95.20;;;;;;5036894;28;20042;-87
2021/09/01 09:51:06;;;;;;;17.88;11.63;;;19.00;95.20;;;;;;5036058;28;20052;-88
2021/09/01 09:53:41;;;;;;;18.30;12.20;;;19.00;95.10;;;;;;5038862;28;20046;-87
2021/09/01 09:56:14;;;;;;;24.25;12.00;;;19.00;95.00;;;;;;5036678;28;20049;-89
2021/09/01 09:58:52;;;;;;;15.10;11.13;;;19.20;95.00;;;;;;5035722;28;20029;-87
2021/09/01 10:01:19;;;;;;;21.45;13.25;;;19.30;95.00;;;;;;5044838;28;20029;-89
2021/09/01 10:03:45;;;;;;;16.05;11.98;;;19.40;94.80;;;;;;5071141;28;20102;-82
2021/09/01 10:06:19;;;;;;;19.27;12.85;;;19.50;94.60;;;;;;5053263;28;20044;-85
2021/09/01 10:08:50;;;;;;;18.40;12.27;;;19.70;94.10;;;;;;5057446;28;20183;-91
2021/09/01 10:11:17;;;;;;;17.40;12.80;;;19.70;93.50;;;;;;5057953;28;20043;-91
2021/09/01 10:13:46;;;;;;;20.10;12.52;;;19.70;94.30;;;;;;5058058;28;20041;-92
2021/09/01 10:16:20;;;;;;;23.63;11.95;;;19.90;93.80;;;;;;5054406;28;20033;-92
2021/09/01 10:19:16;;;;;;;16.67;12.85;;;20.10;93.40;;;;;;5070655;28;20030;-91
2021/09/01 10:22:11;;;;;;;19.23;11.70;;;20.20;93.20;;;;;;5037745;28;20044;-93
2021/09/01 10:24:44;;;;;;;16.55;12.00;;;20.40;93.60;;;;;;5044526;28;20033;-93
2021/09/01 10:27:25;;;;;;;16.73;10.73;;;20.50;93.30;;;;;;5071020;28;20060;-92
2021/09/01 10:30:12;;;;;;;17.85;10.52;;;20.60;93.10;;;;;;5058661;28;20037;-94
2021/09/01 10:32:46;;;;;;;16.13;10.52;;;20.80;92.60;;;;;;5063402;28;20048;-91
2021/09/01 10:35:17;;;;;;;15.20;9.98;;;20.90;92.50;;;;;;5061661;28;20037;-90
2021/09/01 10:37:50;;;;;;;13.25;10.00;;;21.00;92.40;;;;;;5060534;28;20119;-92
2021/09/01 10:40:21;;;;;;;16.60;10.13;;;21.10;92.10;;;;;;5061205;28;20033;-91
2021/09/01 10:43:19;;;;;;;15.57;11.27;;;21.10;92.20;;;;;;5061306;28;20045;-91
2021/09/01 10:45:48;;;;;;;15.75;9.27;;;21.10;92.20;;;;;;5070929;28;20411;-91
2021/09/01 10:48:14;;;;;;;11.48;8.18;;;21.20;91.80;;;;;;5067120;28;20037;-88
2021/09/01 10:50:45;;;;;;;11.75;7.60;;;21.20;91.50;;;;;;5101896;28;20312;-90
2021/09/01 10:53:28;;;;;;;10.93;8.07;;;21.30;92.50;;;;;;5076419;28;20044;-89
2021/09/01 10:56:13;;;;;;;11.88;7.40;;;21.50;91.60;;;;;;5061730;28;20040;-90
2021/09/01 10:58:43;;;;;;;12.93;8.13;;;21.50;92.00;;;;;;5064589;28;20033;-89
2021/09/01 11:01:18;;;;;;;14.10;8.70;;;21.70;91.10;;;;;;5071732;28;20033;-91
2021/09/01 11:03:52;;;;;;;10.70;7.72;;;21.80;91.00;;;;;;5065683;28;20028;-89
2021/09/01 11:06:24;;;;;;;10.80;7.05;;;22.00;91.20;;;;;;5060783;28;20037;-92
2021/09/01 11:09:10;;;;;;;12.05;8.02;;;22.00;90.40;;;;;;5060336;28;20044;-90
2021/09/01 11:11:47;;;;;;;10.90;7.53;;;22.00;91.10;;;;;;5063956;28;20041;-90
2021/09/01 11:14:46;;;;;;;11.20;7.55;;;22.00;90.40;;;;;;5060425;28;20036;-92
2021/09/01 11:17:13;;;;;;;12.65;7.00;;;22.10;91.30;;;;;;5060463;28;20068;-91
2021/09/01 11:19:48;;;;;;;9.82;7.30;;;22.10;90.60;;;;;;5059929;28;20044;-90
2021/09/01 11:22:24;;;;;;;11.13;6.82;;;22.10;90.20;;;;;;5060385;28;20037;-92
2021/09/01 11:25:00;;;;;;;9.80;6.50;;;22.20;90.60;;;;;;5066663;28;20049;-90
2021/09/01 11:27:27;;;;;;;9.43;7.22;;;22.30;90.20;;;;;;5114189;28;20132;-90
2021/09/01 11:30:12;;;;;;;8.73;6.63;;;22.30;90.00;;;;;;5094993;28;20036;-92
2021/09/01 11:32:42;;;;;;;12.88;6.43;;;22.30;90.40;;;;;;5093726;28;20132;-91
2021/09/01 11:35:27;;;;;;;9.55;6.70;;;22.30;90.20;;;;;;5095171;28;20385;-90
2021/09/01 11:38:08;;;;;;;7.22;4.82;;;22.40;90.20;;;;;;5107211;28;20045;-92
2021/09/01 11:40:42;;;;;;;9.75;6.00;;;22.50;89.10;;;;;;5091710;28;20037;-91
2021/09/01 11:43:21;;;;;;;10.57;5.40;;;22.70;90.40;;;;;;5105081;28;20037;-91
2021/09/01 11:45:57;;;;;;;9.40;6.05;;;22.90;89.20;;;;;;5110002;28;20037;-92
2021/09/01 11:48:22;;;;;;;10.98;5.45;;;23.00;89.00;;;;;;5095110;28;20102;-92
2021/09/01 11:50:49;;;;;;;8.02;5.30;;;23.20;87.50;;;;;;5059193;28;20358;-91
2021/09/01 11:53:16;;;;;;;10.15;6.13;;;23.30;87.90;;;;;;5058925;28;20052;-92
2021/09/01 11:55:44;;;;;;;7.55;6.28;;;23.20;87.80;;;;;;5059217;28;20124;-91
2021/09/01 11:58:20;;;;;;;10.27;5.50;;;23.10;88.50;;;;;;5059760;28;20029;-89
2021/09/01 12:00:48;;;;;;;9.02;6.22;;;23.00;87.60;;;;;;5058717;28;20041;-90
2021/09/01 12:03:15;;;;;;;8.35;4.60;;;23.00;86.30;;;;;;5074933;28;20068;-91
2021/09/01 12:05:41;;;;;;;7.07;4.65;;;22.90;87.90;;;;;;5058979;28;20381;-88
2021/09/01 12:08:25;;;;;;;7.68;5.68;;;22.90;87.70;;;;;;5060413;28;20075;-91
2021/09/01 12:10:56;;;;;;;7.95;4.57;;;23.00;88.10;;;;;;5063373;28;20041;-90
2021/09/01 12:13:41;;;;;;;5.82;4.30;;;23.00;87.30;;;;;;5074453;28;20085;-89
2021/09/01 12:16:07;;;;;;;7.20;4.80;;;23.10;87.70;;;;;;5073127;28;20464;-89
2021/09/01 12:18:53;;;;;;;5.55;3.70;;;23.20;88.00;;;;;;5063143;28;20060;-92
2021/09/01 12:21:20;;;;;;;6.75;4.22;;;23.20;89.40;;;;;;5101787;28;20032;-92
2021/09/01 12:24:07;;;;;;;10.70;4.82;;;23.30;87.70;;;;;;5063839;28;20033;-91
2021/09/01 12:26:43;;;;;;;5.57;4.03;;;23.30;86.00;;;;;;5077664;28;20036;-90
2021/09/01 12:29:26;;;;;;;6.60;4.38;;;23.30;85.90;;;;;;5066306;28;20037;-90
2021/09/01 12:31:52;;;;;;;9.38;4.20;;;23.40;86.60;;;;;;5096419;28;20052;-88
2021/09/01 12:34:31;;;;;;;6.00;3.88;;;23.30;85.20;;;;;;5098050;28;20068;-91
2021/09/01 12:37:09;;;;;;;8.18;3.88;;;23.20;83.00;;;;;;5058753;28;20065;-87
2021/09/01 12:39:57;;;;;;;5.10;3.65;;;23.00;84.00;;;;;;5060617;28;20040;-88
2021/09/01 12:42:27;;;;;;;8.38;4.28;;;22.90;85.30;;;;;;5058456;28;20059;-89